createdAt,value
2022-10-05T00:00:00.085Z,12.45
2022-10-05T00:02:26.855Z,12.32
2022-10-05T00:04:56.564Z,11.60
2022-10-05T00:07:24.652Z,12.00
2022-10-05T00:09:57.483Z,10.23
2022-10-05T00:12:26.248Z,9.55
2022-10-05T00:15:00.017Z,15.50
2022-10-05T00:17:29.431Z,13.20
2022-10-05T00:19:55.946Z,13.05
2022-10-05T00:22:24.064Z,10.70
2022-10-05T00:24:56.298Z,11.25
2022-10-05T00:27:26.059Z,10.27
2022-10-05T00:29:57.369Z,11.02
2022-10-05T00:32:23.762Z,10.63
2022-10-05T00:34:50.200Z,11.82
2022-10-05T00:37:16.694Z,12.07
2022-10-05T00:39:43.368Z,18.05
2022-10-05T00:42:50.048Z,12.00
2022-10-05T00:45:24.298Z,10.80
2022-10-05T00:50:48.669Z,11.38
2022-10-05T00:53:45.003Z,17.88
2022-10-05T00:56:31.448Z,11.15
2022-10-05T00:59:15.043Z,10.80
2022-10-05T01:02:03.080Z,10.50
2022-10-05T01:04:54.178Z,10.05
2022-10-05T01:07:38.476Z,12.45
2022-10-05T01:10:29.515Z,15.73
2022-10-05T01:13:15.215Z,14.25
2022-10-05T01:16:07.814Z,12.43
2022-10-05T01:18:46.261Z,12.20
2022-10-05T01:21:15.649Z,9.65
2022-10-05T01:23:48.108Z,8.85
2022-10-05T01:26:43.067Z,9.25
2022-10-05T01:29:24.034Z,13.73
2022-10-05T01:31:58.541Z,10.30
2022-10-05T01:34:38.066Z,14.13
2022-10-05T01:37:28.773Z,8.45
2022-10-05T01:40:12.576Z,8.82
2022-10-05T01:42:42.006Z,8.95
2022-10-05T01:45:11.335Z,8.93
2022-10-05T01:47:43.644Z,10.45
2022-10-05T01:50:20.121Z,10.18
2022-10-05T01:53:21.269Z,8.00
2022-10-05T01:55:56.651Z,8.52
2022-10-05T01:58:37.563Z,10.88
2022-10-05T02:01:19.974Z,10.80
2022-10-05T02:04:13.417Z,8.35
2022-10-05T02:06:50.809Z,8.23
2022-10-05T02:09:31.824Z,11.13
2022-10-05T02:12:03.113Z,11.15
2022-10-05T02:14:42.912Z,9.07
2022-10-05T02:17:20.073Z,7.20
2022-10-05T02:19:50.859Z,10.52
2022-10-05T02:22:26.468Z,10.73
2022-10-05T02:25:00.707Z,9.68
2022-10-05T02:30:01.889Z,16.58
2022-10-05T02:32:32.573Z,10.73
2022-10-05T02:35:09.296Z,11.65
2022-10-05T02:37:41.705Z,9.95
2022-10-05T02:40:45.730Z,11.98
2022-10-05T02:43:43.301Z,9.65
2022-10-05T02:46:29.548Z,10.48
2022-10-05T02:49:28.294Z,10.85
2022-10-05T02:52:17.017Z,13.98
2022-10-05T02:55:10.310Z,14.15
2022-10-05T02:57:36.758Z,15.85
2022-10-05T03:00:13.192Z,14.55
2022-10-05T03:02:48.537Z,11.40
2022-10-05T03:05:37.548Z,12.90
2022-10-05T03:08:15.397Z,15.88
2022-10-05T03:11:07.062Z,17.85
2022-10-05T03:13:47.725Z,13.18
2022-10-05T03:16:42.595Z,12.25
2022-10-05T03:21:56.440Z,18.77
2022-10-05T03:24:56.915Z,16.08
2022-10-05T03:27:44.035Z,20.95
2022-10-05T03:30:16.330Z,16.73
2022-10-05T03:33:09.360Z,25.60
2022-10-05T03:35:48.187Z,19.98
2022-10-05T03:38:27.366Z,23.88
2022-10-05T03:41:11.544Z,20.73
2022-10-05T03:43:43.875Z,19.55
2022-10-05T03:46:26.094Z,19.15
2022-10-05T03:49:10.020Z,25.70
2022-10-05T03:51:51.284Z,20.58
2022-10-05T03:54:34.885Z,19.83
2022-10-05T03:57:13.461Z,19.95
2022-10-05T04:00:16.045Z,16.30
2022-10-05T04:03:02.453Z,16.00
2022-10-05T04:05:35.504Z,16.30
2022-10-05T04:08:18.240Z,15.32
2022-10-05T04:11:01.662Z,15.68
2022-10-05T04:13:46.725Z,14.50
2022-10-05T04:16:28.220Z,12.88
2022-10-05T04:18:57.301Z,14.60
2022-10-05T04:21:41.297Z,15.88
2022-10-05T04:24:49.498Z,16.17
2022-10-05T04:27:27.926Z,20.38
2022-10-05T04:30:05.237Z,18.90
2022-10-05T04:32:42.955Z,18.00
2022-10-05T04:35:23.816Z,24.05
2022-10-05T04:38:17.440Z,29.63
2022-10-05T04:41:10.102Z,29.17
2022-10-05T04:43:42.851Z,19.35
2022-10-05T04:46:21.269Z,23.20
2022-10-05T04:49:25.270Z,14.65
2022-10-05T04:52:10.046Z,24.65
2022-10-05T04:54:48.801Z,20.70
2022-10-05T04:57:39.622Z,20.65
2022-10-05T05:00:13.742Z,20.95
2022-10-05T05:03:08.124Z,15.13
2022-10-05T05:06:12.439Z,22.95
2022-10-05T05:09:00.732Z,21.10
2022-10-05T05:11:51.420Z,19.65
2022-10-05T05:14:48.318Z,23.17
2022-10-05T05:17:20.761Z,14.38
2022-10-05T05:19:53.169Z,21.52
2022-10-05T05:22:40.729Z,12.25
2022-10-05T05:25:33.715Z,13.45
2022-10-05T05:28:40.959Z,13.85
2022-10-05T05:31:24.413Z,13.00
2022-10-05T05:34:29.047Z,12.15
2022-10-05T05:37:01.214Z,11.98
2022-10-05T05:40:01.729Z,14.50
2022-10-05T05:42:47.041Z,12.85
2022-10-05T05:45:31.907Z,17.85
2022-10-05T05:48:02.079Z,10.05
2022-10-05T05:50:34.455Z,12.32
2022-10-05T05:53:23.724Z,11.05
2022-10-05T05:55:56.108Z,11.48
2022-10-05T05:58:27.379Z,16.27
2022-10-05T06:01:32.208Z,12.82
2022-10-05T06:04:03.543Z,14.85
2022-10-05T06:06:35.746Z,12.25
2022-10-05T06:09:11.333Z,15.45
2022-10-05T06:11:46.996Z,12.88
2022-10-05T06:14:22.194Z,17.83
2022-10-05T06:17:00.574Z,16.40
2022-10-05T06:19:28.828Z,15.00
2022-10-05T06:22:14.926Z,18.27
2022-10-05T06:25:11.412Z,15.95
2022-10-05T06:28:02.682Z,15.18
2022-10-05T06:30:59.530Z,22.65
2022-10-05T06:33:44.761Z,17.75
2022-10-05T06:36:45.464Z,13.57
2022-10-05T06:39:27.006Z,17.65
2022-10-05T06:42:16.811Z,13.70
2022-10-05T06:45:12.801Z,14.57
2022-10-05T06:47:53.629Z,17.38
2022-10-05T06:50:41.130Z,15.07
2022-10-05T06:53:35.503Z,14.88
2022-10-05T06:56:21.185Z,14.30
2022-10-05T06:59:17.445Z,16.42
2022-10-05T07:01:51.654Z,14.73
2022-10-05T07:04:59.732Z,12.15
2022-10-05T07:07:35.435Z,14.95
2022-10-05T07:10:07.838Z,14.07
2022-10-05T07:12:53.045Z,17.20
2022-10-05T07:15:33.770Z,15.80
2022-10-05T07:18:06.424Z,16.15
2022-10-05T07:20:48.251Z,14.23
2022-10-05T07:23:21.943Z,13.25
2022-10-05T07:26:09.781Z,14.13
2022-10-05T07:28:39.011Z,15.90
2022-10-05T07:31:24.005Z,18.23
2022-10-05T07:34:15.329Z,18.23
2022-10-05T07:37:13.706Z,15.35
2022-10-05T07:40:06.290Z,13.48
2022-10-05T07:42:51.993Z,19.70
2022-10-05T07:45:28.606Z,17.08
2022-10-05T07:47:57.828Z,13.02
2022-10-05T07:50:26.769Z,14.27
2022-10-05T07:53:01.651Z,13.07
2022-10-05T07:55:39.370Z,15.40
2022-10-05T07:58:21.472Z,12.75
2022-10-05T08:01:03.194Z,13.18
2022-10-05T08:03:49.410Z,13.95
2022-10-05T08:06:48.898Z,14.82
2022-10-05T08:09:39.005Z,14.88
2022-10-05T08:12:24.277Z,13.32
2022-10-05T08:15:06.715Z,15.43
2022-10-05T08:18:00.464Z,13.15
2022-10-05T08:20:26.909Z,15.20
2022-10-05T08:23:28.427Z,17.25
2022-10-05T08:26:19.273Z,19.63
2022-10-05T08:28:55.931Z,16.00
2022-10-05T08:31:31.863Z,25.40
2022-10-05T08:34:22.589Z,16.73
2022-10-05T08:37:17.907Z,15.98
2022-10-05T08:40:15.258Z,14.65
2022-10-05T08:43:01.286Z,17.65
2022-10-05T08:45:46.643Z,17.80
2022-10-05T08:48:45.665Z,14.55
2022-10-05T08:51:26.953Z,13.57
2022-10-05T08:54:35.371Z,13.30
2022-10-05T08:57:36.505Z,13.48
2022-10-05T09:00:02.936Z,13.00
2022-10-05T09:02:57.867Z,14.13
2022-10-05T09:05:46.450Z,14.77
2022-10-05T09:08:37.361Z,15.13
2022-10-05T09:11:35.481Z,11.55
2022-10-05T09:14:01.843Z,14.57
2022-10-05T09:16:51.520Z,14.40
2022-10-05T09:19:23.881Z,13.30
2022-10-05T09:22:12.103Z,10.65
2022-10-05T09:24:53.751Z,12.13
2022-10-05T09:27:28.160Z,12.60
2022-10-05T09:30:16.443Z,10.07
2022-10-05T09:33:07.230Z,11.70
2022-10-05T09:35:58.168Z,10.05
2022-10-05T09:38:59.317Z,13.65
2022-10-05T09:41:54.780Z,12.80
2022-10-05T09:45:08.801Z,10.48
2022-10-05T09:47:59.874Z,10.25
2022-10-05T09:50:40.058Z,10.13
2022-10-05T09:53:28.235Z,10.52
2022-10-05T09:56:21.108Z,11.27
2022-10-05T09:59:21.449Z,11.15
2022-10-05T10:02:18.720Z,11.15
2022-10-05T10:05:16.279Z,9.18
2022-10-05T10:07:58.527Z,7.50
2022-10-05T10:10:49.741Z,9.55
2022-10-05T10:13:38.200Z,8.07
2022-10-05T10:16:40.268Z,8.48
2022-10-05T10:19:28.276Z,9.40
2022-10-05T10:22:25.144Z,9.40
2022-10-05T10:25:42.609Z,7.75
2022-10-05T10:28:34.333Z,10.15
2022-10-05T10:31:12.822Z,10.25
2022-10-05T10:33:49.917Z,7.90
2022-10-05T10:36:22.438Z,6.40
2022-10-05T10:39:20.878Z,8.05
2022-10-05T10:42:29.891Z,6.30
2022-10-05T10:45:17.057Z,7.75
2022-10-05T10:48:05.017Z,5.97
2022-10-05T10:51:13.340Z,5.78
2022-10-05T10:54:36.951Z,10.75
2022-10-05T10:57:06.420Z,5.63
2022-10-05T10:59:57.553Z,5.55
2022-10-05T11:02:37.933Z,5.88
2022-10-05T11:05:07.004Z,8.85
2022-10-05T11:07:42.846Z,6.60
2022-10-05T11:10:43.362Z,7.45
2022-10-05T11:13:31.308Z,8.77
2022-10-05T11:16:19.896Z,5.38
2022-10-05T11:19:04.758Z,6.63
2022-10-05T11:21:56.191Z,5.82
2022-10-05T11:24:38.612Z,7.53
2022-10-05T11:30:20.949Z,8.15
2022-10-05T11:33:19.681Z,4.88
2022-10-05T11:36:19.780Z,6.18
2022-10-05T11:39:04.712Z,5.65
2022-10-05T11:42:01.978Z,5.22
2022-10-05T11:45:03.719Z,6.13
2022-10-05T11:47:37.582Z,5.90
2022-10-05T11:52:44.887Z,5.63
2022-10-05T11:55:37.491Z,4.63
2022-10-05T11:58:15.883Z,3.20
2022-10-05T12:01:04.400Z,3.90
2022-10-05T12:04:06.062Z,5.60
2022-10-05T12:06:41.459Z,3.15
2022-10-05T12:09:23.191Z,3.60
2022-10-05T12:12:27.004Z,3.13
2022-10-05T12:15:08.782Z,4.30
2022-10-05T12:17:46.783Z,6.00
2022-10-05T12:20:20.149Z,3.78
2022-10-05T12:22:58.583Z,5.55
2022-10-05T12:25:31.802Z,5.45
2022-10-05T12:28:04.913Z,3.75
2022-10-05T12:30:54.771Z,3.25
2022-10-05T12:33:44.103Z,5.45
2022-10-05T12:36:59.235Z,2.38
2022-10-05T12:39:31.204Z,4.72
2022-10-05T12:42:10.058Z,4.47
2022-10-05T12:44:49.114Z,6.53
2022-10-05T12:47:53.869Z,4.07
2022-10-05T12:50:28.519Z,4.93
2022-10-05T12:53:14.601Z,4.90
2022-10-05T12:55:53.619Z,7.25
2022-10-05T12:59:00.681Z,3.40
2022-10-05T13:01:48.767Z,5.70
2022-10-05T13:04:24.292Z,5.65
2022-10-05T13:07:20.964Z,3.63
2022-10-05T13:10:04.040Z,2.97
2022-10-05T13:13:05.935Z,5.60
2022-10-05T13:15:44.293Z,4.53
2022-10-05T13:18:34.992Z,3.15
2022-10-05T13:21:12.641Z,3.90
2022-10-05T13:23:57.695Z,2.60
2022-10-05T13:26:31.714Z,4.47
2022-10-05T13:29:01.519Z,3.90
2022-10-05T13:31:40.880Z,3.33
2022-10-05T13:34:22.880Z,2.47
2022-10-05T13:37:03.485Z,5.15
2022-10-05T13:39:35.653Z,3.17
2022-10-05T13:42:11.132Z,6.47
2022-10-05T13:44:46.365Z,6.30
2022-10-05T13:47:16.839Z,2.95
2022-10-05T13:50:17.493Z,2.90
2022-10-05T13:52:43.945Z,4.07
2022-10-05T13:55:35.677Z,5.20
2022-10-05T13:58:05.749Z,11.18
2022-10-05T14:00:39.584Z,4.22
2022-10-05T14:05:58.620Z,9.93
2022-10-05T14:08:32.582Z,4.75
2022-10-05T14:10:59.288Z,2.75
2022-10-05T14:13:28.689Z,3.45
2022-10-05T14:16:13.271Z,8.25
2022-10-05T14:19:10.396Z,3.78
2022-10-05T14:21:49.731Z,4.43
2022-10-05T14:24:43.530Z,3.72
2022-10-05T14:27:33.288Z,3.72
2022-10-05T14:30:20.015Z,7.70
2022-10-05T14:33:16.979Z,5.32
2022-10-05T14:35:55.533Z,4.80
2022-10-05T14:38:55.150Z,8.48
2022-10-05T14:41:27.443Z,2.00
2022-10-05T14:44:09.235Z,4.05
2022-10-05T14:46:36.698Z,1.50
2022-10-05T14:49:29.049Z,53.50
2022-10-05T14:51:56.599Z,5.03
2022-10-05T14:54:35.463Z,6.80
2022-10-05T14:57:25.263Z,2.22
2022-10-05T15:00:02.357Z,3.40
2022-10-05T15:02:53.255Z,3.85
2022-10-05T15:05:41.145Z,4.60
2022-10-05T15:08:36.976Z,4.43
2022-10-05T15:11:07.472Z,3.30
2022-10-05T15:13:40.144Z,2.00
2022-10-05T15:16:24.990Z,2.55
2022-10-05T15:19:31.141Z,3.33
2022-10-05T15:22:01.047Z,3.60
2022-10-05T15:24:45.449Z,3.42
2022-10-05T15:27:46.056Z,2.72
2022-10-05T15:30:17.858Z,3.53
2022-10-05T15:33:21.504Z,3.38
2022-10-05T15:35:55.030Z,6.95
2022-10-05T15:38:25.812Z,4.60
2022-10-05T15:41:10.739Z,5.90
2022-10-05T15:44:24.127Z,5.38
2022-10-05T15:47:02.902Z,5.15
2022-10-05T15:49:38.387Z,2.42
2022-10-05T15:52:17.643Z,3.50
2022-10-05T15:55:01.918Z,5.85
2022-10-05T15:57:43.559Z,3.00
2022-10-05T16:00:21.045Z,6.50
2022-10-05T16:02:59.407Z,3.90
2022-10-05T16:05:56.821Z,3.60
2022-10-05T16:08:54.085Z,4.28
2022-10-05T16:11:48.939Z,4.45
2022-10-05T16:14:40.079Z,3.25
2022-10-05T16:17:13.561Z,2.83
2022-10-05T16:20:08.046Z,7.22
2022-10-05T16:22:34.421Z,6.38
2022-10-05T16:25:22.224Z,8.85
2022-10-05T16:28:26.660Z,5.10
2022-10-05T16:31:06.812Z,5.03
2022-10-05T16:33:58.622Z,4.28
2022-10-05T16:36:55.361Z,7.82
2022-10-05T16:39:40.563Z,4.40
2022-10-05T16:42:29.643Z,4.03
2022-10-05T16:45:45.151Z,4.90
2022-10-05T16:48:23.578Z,3.70
2022-10-05T16:51:08.903Z,8.98
2022-10-05T16:53:59.651Z,5.15
2022-10-05T16:56:34.560Z,5.75
2022-10-05T16:59:35.475Z,6.88
2022-10-05T17:02:28.655Z,3.50
2022-10-05T17:04:58.062Z,12.48
2022-10-05T17:07:36.389Z,6.70
2022-10-05T17:10:37.771Z,4.70
2022-10-05T17:13:23.222Z,10.43
2022-10-05T17:16:36.120Z,8.38
2022-10-05T17:19:20.680Z,5.68
2022-10-05T17:21:58.987Z,5.18
2022-10-05T17:24:37.457Z,6.05
2022-10-05T17:27:34.171Z,7.25
2022-10-05T17:30:27.267Z,9.23
2022-10-05T17:33:13.980Z,34.08
2022-10-05T17:35:55.162Z,11.07
2022-10-05T17:38:30.669Z,9.95
2022-10-05T17:41:00.031Z,6.72
2022-10-05T17:43:33.624Z,8.57
2022-10-05T17:46:01.270Z,8.35
2022-10-05T17:48:43.330Z,6.90
2022-10-05T17:51:46.881Z,5.80
2022-10-05T17:54:42.326Z,6.68
2022-10-05T17:57:08.708Z,6.88
2022-10-05T17:59:46.408Z,8.45
2022-10-05T18:02:40.074Z,9.75
2022-10-05T18:05:16.812Z,8.53
2022-10-05T18:07:48.731Z,7.35
2022-10-05T18:10:25.696Z,6.60
2022-10-05T18:13:20.832Z,4.38
2022-10-05T18:15:49.288Z,8.15
2022-10-05T18:18:43.780Z,8.80
2022-10-05T18:21:13.354Z,4.18
2022-10-05T18:24:08.858Z,5.80
2022-10-05T18:26:59.649Z,4.18
2022-10-05T18:30:00.102Z,3.15
2022-10-05T18:32:45.981Z,4.63
2022-10-05T18:35:23.581Z,6.13
2022-10-05T18:38:25.109Z,5.35
2022-10-05T18:41:09.227Z,4.47
2022-10-05T18:43:52.266Z,5.88
2022-10-05T18:46:46.735Z,10.30
2022-10-05T18:49:27.047Z,5.55
2022-10-05T18:52:36.920Z,6.47
2022-10-05T18:55:18.646Z,4.25
2022-10-05T18:57:54.283Z,6.13
2022-10-05T19:00:23.737Z,5.38
2022-10-05T19:03:02.195Z,7.13
2022-10-05T19:05:48.385Z,3.47
2022-10-05T19:08:46.656Z,3.90
2022-10-05T19:11:29.903Z,8.05
2022-10-05T19:14:05.648Z,6.55
2022-10-05T19:16:47.322Z,5.47
2022-10-05T19:19:35.100Z,11.10
2022-10-05T19:22:12.897Z,6.82
2022-10-05T19:24:43.853Z,7.15
2022-10-05T19:27:26.293Z,8.73
2022-10-05T19:30:21.747Z,8.10
2022-10-05T19:33:09.988Z,7.53
2022-10-05T19:35:48.726Z,8.80
2022-10-05T19:38:26.997Z,11.85
2022-10-05T19:41:26.179Z,7.22
2022-10-05T19:44:31.882Z,7.93
2022-10-05T19:47:06.798Z,7.72
2022-10-05T19:49:56.429Z,10.13
2022-10-05T19:52:36.818Z,9.38
2022-10-05T19:55:19.819Z,7.20
2022-10-05T19:57:51.052Z,10.13
2022-10-05T20:00:32.264Z,6.75
2022-10-05T20:03:18.893Z,7.75
2022-10-05T20:05:45.803Z,5.82
2022-10-05T20:08:17.979Z,10.02
2022-10-05T20:10:45.955Z,13.80
2022-10-05T20:13:25.337Z,7.13
2022-10-05T20:16:26.491Z,8.57
2022-10-05T20:19:11.991Z,6.70
2022-10-05T20:21:44.268Z,8.32
2022-10-05T20:24:20.966Z,5.07
2022-10-05T20:27:05.543Z,8.90
2022-10-05T20:29:41.296Z,4.18
2022-10-05T20:32:12.995Z,8.38
2022-10-05T20:34:50.773Z,6.47
2022-10-05T20:37:21.235Z,6.85
2022-10-05T20:39:48.868Z,8.60
2022-10-05T20:42:15.355Z,5.80
2022-10-05T20:44:42.437Z,4.90
2022-10-05T20:47:10.348Z,5.85
2022-10-05T20:49:38.746Z,6.70
2022-10-05T20:52:06.683Z,7.22
2022-10-05T20:54:33.197Z,35.13
2022-10-05T20:56:59.659Z,8.95
2022-10-05T20:59:29.514Z,5.43
2022-10-05T21:01:56.017Z,6.93
2022-10-05T21:04:25.008Z,9.00
2022-10-05T21:06:52.862Z,4.25
2022-10-05T21:09:21.448Z,8.15
2022-10-05T21:11:50.072Z,10.25
2022-10-05T21:14:17.074Z,5.55
2022-10-05T21:16:45.857Z,4.30
2022-10-05T21:19:15.850Z,10.65
2022-10-05T21:21:44.169Z,4.95
2022-10-05T21:24:13.679Z,7.60
2022-10-05T21:26:41.637Z,6.53
2022-10-05T21:29:12.518Z,7.10
2022-10-05T21:31:40.322Z,5.03
2022-10-05T21:34:07.648Z,8.02
2022-10-05T21:36:34.568Z,7.88
2022-10-05T21:39:01.244Z,5.18
2022-10-05T21:41:27.703Z,4.63
2022-10-05T21:43:54.282Z,5.18
2022-10-05T21:46:25.348Z,7.28
2022-10-05T21:48:53.303Z,5.15
2022-10-05T21:51:21.987Z,5.88
2022-10-05T21:53:53.023Z,3.15
2022-10-05T21:56:22.080Z,6.82
2022-10-05T21:58:50.175Z,8.25
2022-10-05T22:01:22.267Z,4.47
2022-10-05T22:03:49.203Z,3.35
2022-10-05T22:06:15.645Z,6.05
2022-10-05T22:08:42.092Z,7.28
2022-10-05T22:11:11.473Z,5.72
2022-10-05T22:13:44.341Z,3.72
2022-10-05T22:16:11.931Z,6.50
2022-10-05T22:18:38.763Z,8.23
2022-10-05T22:21:07.256Z,7.40
2022-10-05T22:23:35.703Z,8.00
2022-10-05T22:26:03.465Z,6.63
2022-10-05T22:28:31.884Z,3.10
2022-10-05T22:31:01.768Z,6.43
2022-10-05T22:33:28.276Z,4.32
2022-10-05T22:35:54.733Z,6.75
2022-10-05T22:38:21.167Z,5.10
2022-10-05T22:40:47.614Z,6.55
2022-10-05T22:43:14.038Z,6.70
2022-10-05T22:45:40.746Z,3.47
2022-10-05T22:48:07.279Z,5.45
2022-10-05T22:50:33.986Z,5.57
2022-10-05T22:53:00.446Z,4.10
2022-10-05T22:55:26.965Z,2.88
2022-10-05T22:57:53.413Z,6.28
2022-10-05T23:00:24.700Z,4.82
2022-10-05T23:02:54.276Z,3.80
2022-10-05T23:05:20.694Z,10.38
2022-10-05T23:07:47.111Z,6.28
2022-10-05T23:10:17.135Z,6.05
2022-10-05T23:12:44.592Z,5.25
2022-10-05T23:15:11.600Z,4.10
2022-10-05T23:17:39.276Z,4.10
2022-10-05T23:20:07.382Z,5.18
2022-10-05T23:22:37.932Z,2.92
2022-10-05T23:25:06.183Z,5.88
2022-10-05T23:27:40.326Z,4.20
2022-10-05T23:30:09.332Z,5.18
2022-10-05T23:32:43.020Z,7.20
2022-10-05T23:35:11.528Z,4.97
2022-10-05T23:37:43.067Z,7.55
2022-10-05T23:40:12.226Z,5.07
2022-10-05T23:42:39.758Z,4.78
2022-10-05T23:45:07.665Z,5.03
2022-10-05T23:47:34.132Z,5.00
2022-10-05T23:50:01.811Z,4.93
2022-10-05T23:52:28.324Z,4.78
2022-10-05T23:54:54.865Z,3.97
2022-10-05T23:57:21.670Z,4.97
2022-10-05T23:59:50.254Z,6.07
